Santiago, Chile
Current Conditions -  °F | °C
As of 5:00 PM on Tuesday 21 Oct 2014 (Local Time) from SCEL Reporting Station
Clear Clear  
Wind Chill: 79°   Ceiling: Unl
Heat Index: 79°   Visibility: 6mi
Dew Point: 54°   Wind: 23mph
Humidity: 42%   Direction: 220°SW
Pressure: 29.91"   Gusts: NA
Location:  33.46°S, 70.64°W
Report Text: SCEL 212100Z 22020KT CAVOK 26/12 Q1013 NOSIG
Loading
Personal Weather Stations






























Interactive Weather Map
Tropical Storm Tracking
New forecast layout! Learn more

10-Day Weather Forecast

Advertisements
Track Severe Weather on mobile